createdAt,value
2018-02-25T00:02:19.641Z,17.50
2018-02-25T00:04:47.231Z,15.70
2018-02-25T00:07:14.881Z,15.00
2018-02-25T00:09:42.445Z,19.13
2018-02-25T00:12:10.097Z,15.10
2018-02-25T00:14:37.730Z,11.10
2018-02-25T00:17:05.782Z,11.20
2018-02-25T00:19:33.388Z,10.20
2018-02-25T00:22:01.021Z,12.47
2018-02-25T00:24:28.609Z,9.87
2018-02-25T00:26:56.547Z,11.33
2018-02-25T00:29:24.183Z,12.63
2018-02-25T00:31:51.887Z,12.80
2018-02-25T00:34:19.500Z,15.73
2018-02-25T00:36:47.117Z,10.77
2018-02-25T00:39:14.980Z,11.20
2018-02-25T00:41:42.720Z,10.53
2018-02-25T00:44:10.522Z,13.37
2018-02-25T00:46:38.198Z,14.90
2018-02-25T00:49:06.028Z,16.77
2018-02-25T00:51:33.612Z,14.27
2018-02-25T00:54:01.217Z,10.97
2018-02-25T00:56:28.826Z,12.30
2018-02-25T00:58:56.764Z,10.40
2018-02-25T01:01:24.345Z,11.00
2018-02-25T01:03:51.910Z,10.00
2018-02-25T01:06:19.576Z,10.57
2018-02-25T01:08:47.146Z,10.67
2018-02-25T01:11:15.036Z,8.70
2018-02-25T01:13:42.660Z,11.03
2018-02-25T01:16:10.300Z,10.50
2018-02-25T01:18:37.906Z,10.53
2018-02-25T01:21:05.570Z,9.27
2018-02-25T01:23:33.177Z,10.43
2018-02-25T01:26:00.789Z,10.40
2018-02-25T01:28:28.382Z,11.03
2018-02-25T01:30:55.987Z,11.13
2018-02-25T01:33:23.703Z,12.00
2018-02-25T01:35:51.312Z,15.17
2018-02-25T01:38:18.901Z,19.77
2018-02-25T01:40:46.514Z,17.50
2018-02-25T01:43:14.066Z,12.40
2018-02-25T01:45:41.669Z,13.83
2018-02-25T01:48:09.276Z,18.17
2018-02-25T01:50:48.607Z,18.07
2018-02-25T01:53:16.484Z,31.10
2018-02-25T01:55:44.084Z,14.77
2018-02-25T01:58:11.651Z,10.40
2018-02-25T02:00:39.247Z,10.40
2018-02-25T02:03:07.224Z,9.90
2018-02-25T02:05:35.352Z,9.80
2018-02-25T02:08:03.781Z,11.60
2018-02-25T02:10:31.424Z,11.90
2018-02-25T02:12:59.095Z,10.57
2018-02-25T02:15:26.776Z,10.73
2018-02-25T02:17:54.445Z,13.30
2018-02-25T02:20:22.081Z,11.93
2018-02-25T02:22:49.729Z,10.13
2018-02-25T02:25:17.816Z,11.20
2018-02-25T02:27:45.467Z,10.50
2018-02-25T02:30:13.212Z,10.60
2018-02-25T02:32:40.794Z,8.50
2018-02-25T02:35:08.449Z,10.30
2018-02-25T02:37:36.075Z,10.43
2018-02-25T02:40:03.730Z,9.27
2018-02-25T02:42:31.397Z,12.50
2018-02-25T02:44:59.018Z,9.90
2018-02-25T02:47:26.631Z,10.80
2018-02-25T02:49:54.279Z,8.90
2018-02-25T02:52:22.673Z,14.87
2018-02-25T02:54:50.297Z,12.93
2018-02-25T02:57:17.903Z,12.77
2018-02-25T02:59:45.495Z,9.40
2018-02-25T03:02:15.924Z,9.77
2018-02-25T03:04:46.773Z,9.57
2018-02-25T03:07:19.550Z,10.40
2018-02-25T03:09:49.748Z,11.20
2018-02-25T03:12:37.340Z,8.13
2018-02-25T03:15:05.203Z,9.57
2018-02-25T03:17:32.824Z,11.60
2018-02-25T03:20:00.675Z,11.83
2018-02-25T03:22:28.292Z,10.13
2018-02-25T03:24:55.886Z,8.67
2018-02-25T03:27:23.598Z,9.83
2018-02-25T03:29:51.195Z,10.30
2018-02-25T03:32:20.409Z,7.80
2018-02-25T03:34:48.000Z,7.67
2018-02-25T03:37:15.585Z,10.03
2018-02-25T03:39:43.541Z,10.10
2018-02-25T03:42:11.114Z,9.00
2018-02-25T03:44:38.690Z,10.27
2018-02-25T03:47:06.560Z,8.93
2018-02-25T03:49:34.297Z,10.07
2018-02-25T03:52:01.920Z,11.07
2018-02-25T03:54:29.525Z,13.17
2018-02-25T03:56:57.137Z,14.90
2018-02-25T03:59:24.949Z,15.57
2018-02-25T04:01:52.606Z,11.23
2018-02-25T04:04:21.153Z,10.47
2018-02-25T04:06:48.750Z,13.63
2018-02-25T04:09:16.565Z,13.07
2018-02-25T04:11:44.253Z,10.77
2018-02-25T04:14:11.847Z,12.93
2018-02-25T04:16:39.456Z,9.13
2018-02-25T04:19:07.195Z,11.37
2018-02-25T04:21:34.803Z,12.27
2018-02-25T04:24:02.398Z,8.00
2018-02-25T04:26:30.007Z,16.43
2018-02-25T04:28:57.616Z,11.73
2018-02-25T04:31:27.774Z,9.80
2018-02-25T04:33:55.717Z,9.23
2018-02-25T04:36:23.362Z,9.33
2018-02-25T04:38:50.998Z,7.60
2018-02-25T04:41:18.572Z,7.10
2018-02-25T04:43:46.182Z,9.83
2018-02-25T04:46:13.884Z,8.93
2018-02-25T04:48:41.443Z,9.57
2018-02-25T04:51:09.831Z,10.13
2018-02-25T04:53:37.526Z,7.50
2018-02-25T04:56:05.122Z,9.23
2018-02-25T04:58:33.067Z,8.40
2018-02-25T05:01:00.746Z,8.27
2018-02-25T05:03:29.464Z,10.00
2018-02-25T05:05:57.131Z,9.30
2018-02-25T05:08:24.742Z,13.50
2018-02-25T05:10:52.335Z,10.73
2018-02-25T05:13:19.980Z,7.93
2018-02-25T05:15:47.545Z,8.13
2018-02-25T05:18:15.149Z,12.80
2018-02-25T05:20:42.775Z,9.90
2018-02-25T05:23:11.917Z,9.37
2018-02-25T05:25:39.513Z,9.37
2018-02-25T05:28:07.181Z,8.07
2018-02-25T05:30:34.786Z,10.10
2018-02-25T05:33:02.416Z,9.53
2018-02-25T05:35:30.067Z,8.00
2018-02-25T05:37:57.647Z,8.00
2018-02-25T05:40:25.291Z,9.57
2018-02-25T05:42:53.199Z,7.60
2018-02-25T05:45:20.805Z,8.50
2018-02-25T05:47:48.363Z,9.23
2018-02-25T05:50:16.313Z,8.50
2018-02-25T05:52:44.084Z,9.43
2018-02-25T05:55:12.729Z,8.40
2018-02-25T05:57:40.334Z,8.40
2018-02-25T06:00:08.144Z,9.00
2018-02-25T06:02:35.716Z,8.90
2018-02-25T06:05:03.355Z,7.87
2018-02-25T06:07:32.457Z,8.77
2018-02-25T06:10:00.051Z,7.53
2018-02-25T06:12:28.389Z,7.67
2018-02-25T06:14:55.976Z,8.63
2018-02-25T06:17:24.389Z,15.07
2018-02-25T06:19:52.056Z,12.43
2018-02-25T06:22:19.688Z,11.00
2018-02-25T06:24:47.306Z,9.33
2018-02-25T06:27:14.992Z,11.20
2018-02-25T06:29:42.599Z,23.20
2018-02-25T06:32:10.381Z,9.53
2018-02-25T06:34:37.979Z,8.07
2018-02-25T06:37:06.029Z,8.50
2018-02-25T06:39:33.953Z,7.47
2018-02-25T06:42:01.562Z,8.20
2018-02-25T06:44:29.230Z,10.80
2018-02-25T06:46:56.832Z,11.90
2018-02-25T06:49:24.627Z,9.87
2018-02-25T06:51:52.232Z,12.23
2018-02-25T06:54:19.862Z,15.63
2018-02-25T06:56:47.511Z,10.80
2018-02-25T06:59:15.099Z,11.23
2018-02-25T07:01:42.767Z,15.57
2018-02-25T07:04:10.386Z,13.00
2018-02-25T07:06:37.980Z,12.47
2018-02-25T07:09:06.141Z,12.03
2018-02-25T07:11:34.932Z,11.73
2018-02-25T07:14:03.280Z,10.27
2018-02-25T07:16:30.859Z,8.47
2018-02-25T07:18:58.452Z,10.07
2018-02-25T07:21:26.402Z,8.63
2018-02-25T07:23:55.043Z,7.73
2018-02-25T07:26:22.641Z,10.47
2018-02-25T07:28:50.465Z,10.40
2018-02-25T07:31:18.045Z,8.43
2018-02-25T07:33:45.696Z,9.50
2018-02-25T07:36:13.365Z,10.10
2018-02-25T07:38:40.954Z,8.50
2018-02-25T07:41:08.528Z,8.17
2018-02-25T07:43:36.155Z,8.87
2018-02-25T07:46:03.729Z,8.87
2018-02-25T07:48:31.297Z,6.77
2018-02-25T07:50:58.889Z,8.47
2018-02-25T07:53:26.506Z,8.47
2018-02-25T07:55:57.042Z,10.00
2018-02-25T07:58:24.629Z,8.43
2018-02-25T08:00:52.275Z,7.60
2018-02-25T08:03:20.581Z,9.20
2018-02-25T08:05:48.212Z,8.83
2018-02-25T08:08:16.013Z,7.97
2018-02-25T08:10:43.602Z,8.70
2018-02-25T08:13:12.003Z,8.93
2018-02-25T08:15:41.180Z,9.17
2018-02-25T08:18:08.729Z,18.47
2018-02-25T08:20:36.305Z,11.27
2018-02-25T08:23:03.898Z,12.50
2018-02-25T08:25:31.538Z,12.47
2018-02-25T08:27:59.165Z,14.07
2018-02-25T08:30:26.774Z,11.43
2018-02-25T08:32:54.354Z,12.33
2018-02-25T08:35:21.966Z,8.60
2018-02-25T08:37:49.569Z,19.53
2018-02-25T08:40:17.189Z,15.30
2018-02-25T08:42:44.776Z,7.43
2018-02-25T08:45:12.547Z,9.67
2018-02-25T08:47:40.123Z,10.60
2018-02-25T08:50:07.793Z,8.17
2018-02-25T08:52:35.364Z,9.20
2018-02-25T08:55:02.948Z,6.27
2018-02-25T08:57:30.522Z,9.50
2018-02-25T08:59:58.106Z,10.83
2018-02-25T09:02:25.724Z,9.13
2018-02-25T09:04:53.301Z,8.67
2018-02-25T09:07:20.942Z,11.80
2018-02-25T09:09:48.628Z,9.03
2018-02-25T09:12:16.229Z,8.17
2018-02-25T09:14:43.797Z,7.50
2018-02-25T09:17:12.028Z,9.40
2018-02-25T09:19:39.638Z,8.43
2018-02-25T09:22:07.270Z,7.47
2018-02-25T09:24:34.928Z,8.10
2018-02-25T09:27:02.667Z,8.27
2018-02-25T09:29:30.291Z,8.83
2018-02-25T09:31:59.622Z,9.10
2018-02-25T09:34:27.217Z,9.60
2018-02-25T09:36:54.779Z,8.40
2018-02-25T09:39:22.382Z,7.33
2018-02-25T09:41:49.968Z,9.00
2018-02-25T09:44:17.583Z,11.23
2018-02-25T09:46:45.181Z,8.90
2018-02-25T09:49:13.138Z,8.63
2018-02-25T09:51:40.767Z,8.10
2018-02-25T09:54:08.355Z,7.67
2018-02-25T09:56:35.971Z,9.33
2018-02-25T09:59:03.600Z,8.40
2018-02-25T10:01:31.205Z,8.17
2018-02-25T10:03:58.876Z,8.03
2018-02-25T10:06:26.818Z,8.60
2018-02-25T10:08:54.396Z,8.10
2018-02-25T10:11:22.162Z,8.03
2018-02-25T10:13:49.752Z,9.07
2018-02-25T10:16:17.622Z,8.20
2018-02-25T10:18:45.294Z,9.10
2018-02-25T10:21:13.527Z,8.47
2018-02-25T10:23:41.087Z,8.63
2018-02-25T10:26:08.709Z,8.80
2018-02-25T10:28:36.317Z,9.23
2018-02-25T10:31:03.955Z,10.07
2018-02-25T10:33:31.629Z,6.87
2018-02-25T10:35:59.214Z,6.93
2018-02-25T10:38:26.942Z,8.80
2018-02-25T10:40:54.514Z,9.03
2018-02-25T10:43:22.817Z,9.57
2018-02-25T10:45:58.256Z,9.03
2018-02-25T10:48:26.120Z,9.23
2018-02-25T10:50:53.703Z,9.57
2018-02-25T10:53:21.628Z,7.03
2018-02-25T10:55:49.199Z,7.50
2018-02-25T10:58:16.792Z,9.50
2018-02-25T11:00:50.013Z,8.57
2018-02-25T11:03:17.582Z,8.30
2018-02-25T11:05:45.151Z,7.13
2018-02-25T11:08:12.836Z,8.20
2018-02-25T11:10:40.410Z,8.47
2018-02-25T11:13:08.098Z,6.83
2018-02-25T11:15:35.778Z,8.30
2018-02-25T11:18:05.885Z,8.10
2018-02-25T11:20:33.545Z,7.67
2018-02-25T11:23:01.428Z,7.77
2018-02-25T11:25:29.084Z,8.27
2018-02-25T11:27:57.927Z,8.73
2018-02-25T11:30:25.734Z,8.73
2018-02-25T11:32:53.348Z,6.93
2018-02-25T11:35:21.280Z,7.37
2018-02-25T11:37:49.931Z,7.10
2018-02-25T11:40:17.530Z,8.50
2018-02-25T11:42:45.088Z,8.20
2018-02-25T11:45:13.331Z,8.20
2018-02-25T11:47:41.048Z,7.97
2018-02-25T11:50:08.605Z,8.00
2018-02-25T11:52:36.293Z,7.80
2018-02-25T11:55:03.935Z,7.23
2018-02-25T11:57:31.532Z,8.33
2018-02-25T11:59:59.084Z,7.93
2018-02-25T12:02:26.665Z,7.23
2018-02-25T12:04:54.283Z,9.00
2018-02-25T12:07:22.113Z,7.23
2018-02-25T12:09:49.754Z,7.87
2018-02-25T12:12:17.361Z,7.03
2018-02-25T12:14:44.956Z,10.43
2018-02-25T12:17:12.794Z,8.50
2018-02-25T12:19:40.411Z,6.80
2018-02-25T12:22:08.011Z,7.10
2018-02-25T12:24:35.594Z,5.90
2018-02-25T12:27:03.406Z,8.50
2018-02-25T12:29:31.022Z,8.57
2018-02-25T12:31:58.596Z,8.40
2018-02-25T12:34:26.213Z,7.80
2018-02-25T12:36:53.788Z,7.77
2018-02-25T12:39:21.765Z,8.40
2018-02-25T12:41:49.361Z,6.80
2018-02-25T12:44:16.978Z,7.43
2018-02-25T12:46:44.539Z,7.33
2018-02-25T12:49:12.583Z,6.83
2018-02-25T12:51:40.175Z,7.00
2018-02-25T12:54:08.096Z,7.73
2018-02-25T12:56:35.697Z,7.10
2018-02-25T12:59:03.288Z,7.47
2018-02-25T13:01:30.967Z,7.63
2018-02-25T13:03:59.436Z,6.67
2018-02-25T13:06:27.069Z,6.57
2018-02-25T13:08:54.652Z,7.00
2018-02-25T13:11:22.231Z,6.67
2018-02-25T13:13:49.818Z,7.23
2018-02-25T13:16:17.410Z,7.90
2018-02-25T13:18:44.985Z,7.53
2018-02-25T13:21:12.677Z,9.97
2018-02-25T13:23:40.266Z,6.97
2018-02-25T13:26:07.873Z,9.03
2018-02-25T13:28:35.452Z,8.90
2018-02-25T13:31:03.080Z,8.60
2018-02-25T13:33:30.747Z,7.37
2018-02-25T13:35:58.647Z,8.07
2018-02-25T13:38:30.046Z,7.13
2018-02-25T13:40:57.579Z,6.97
2018-02-25T13:43:25.280Z,8.67
2018-02-25T13:46:02.372Z,7.03
2018-02-25T13:48:37.687Z,7.40
2018-02-25T13:51:05.394Z,6.53
2018-02-25T13:53:32.981Z,8.23
2018-02-25T13:56:00.644Z,7.10
2018-02-25T13:58:28.469Z,7.53
2018-02-25T14:00:56.089Z,7.20
2018-02-25T14:03:24.348Z,7.37
2018-02-25T14:05:51.932Z,7.20
2018-02-25T14:08:19.586Z,8.30
2018-02-25T14:10:47.162Z,8.47
2018-02-25T14:13:15.270Z,6.63
2018-02-25T14:15:46.321Z,7.13
2018-02-25T14:18:13.938Z,8.60
2018-02-25T14:20:41.532Z,7.47
2018-02-25T14:23:09.592Z,7.60
2018-02-25T14:25:37.301Z,7.77
2018-02-25T14:28:04.884Z,5.20
2018-02-25T14:30:32.457Z,7.60
2018-02-25T14:33:00.107Z,6.87
2018-02-25T14:35:27.710Z,11.30
2018-02-25T14:37:55.276Z,7.93
2018-02-25T14:40:22.860Z,6.77
2018-02-25T14:42:50.445Z,7.00
2018-02-25T14:45:18.042Z,8.13
2018-02-25T14:47:45.645Z,7.00
2018-02-25T14:50:13.241Z,6.67
2018-02-25T14:52:40.846Z,6.90
2018-02-25T14:55:08.528Z,9.97
2018-02-25T14:57:36.181Z,6.77
2018-02-25T15:00:04.050Z,8.43
2018-02-25T15:02:31.631Z,5.50
2018-02-25T15:04:59.252Z,12.07
2018-02-25T15:07:26.817Z,12.53
2018-02-25T15:09:54.404Z,9.17
2018-02-25T15:12:21.980Z,7.03
2018-02-25T15:14:50.053Z,7.00
2018-02-25T15:17:20.600Z,15.50
2018-02-25T15:19:51.219Z,11.13
2018-02-25T15:22:18.791Z,8.40
2018-02-25T15:24:46.444Z,7.20
2018-02-25T15:27:14.178Z,8.60
2018-02-25T15:29:41.816Z,9.57
2018-02-25T15:32:09.453Z,6.83
2018-02-25T15:34:40.916Z,7.23
2018-02-25T15:37:08.750Z,6.53
2018-02-25T15:39:37.111Z,7.20
2018-02-25T15:42:06.135Z,8.20
2018-02-25T15:44:34.060Z,7.97
2018-02-25T15:47:01.736Z,7.90
2018-02-25T15:49:29.415Z,8.57
2018-02-25T15:51:57.025Z,7.73
2018-02-25T15:54:24.610Z,7.33
2018-02-25T15:56:52.187Z,7.40
2018-02-25T15:59:19.827Z,8.83
2018-02-25T16:01:47.435Z,8.30
2018-02-25T16:04:15.710Z,8.47
2018-02-25T16:06:43.294Z,8.53
2018-02-25T16:09:11.739Z,9.80
2018-02-25T16:11:39.302Z,7.17
2018-02-25T16:14:06.973Z,6.63
2018-02-25T16:16:34.536Z,8.10
2018-02-25T16:19:02.121Z,6.77
2018-02-25T16:26:33.297Z,7.30
2018-02-25T16:29:01.011Z,6.37
2018-02-25T16:31:29.090Z,6.73
2018-02-25T16:33:56.842Z,7.30
2018-02-25T16:36:25.202Z,7.13
2018-02-25T16:38:52.995Z,5.93
2018-02-25T16:41:20.580Z,7.83
2018-02-25T16:43:48.252Z,7.67
2018-02-25T16:46:15.952Z,9.00
2018-02-25T16:48:43.541Z,8.60
2018-02-25T16:51:12.029Z,8.13
2018-02-25T16:53:39.715Z,7.87
2018-02-25T16:56:07.319Z,7.07
2018-02-25T16:58:34.915Z,7.90
2018-02-25T17:01:02.770Z,7.40
2018-02-25T17:03:30.385Z,7.00
2018-02-25T17:05:57.973Z,8.03
2018-02-25T17:08:26.387Z,7.27
2018-02-25T17:10:54.263Z,6.70
2018-02-25T17:13:22.815Z,7.23
2018-02-25T17:15:50.369Z,6.90
2018-02-25T17:18:17.930Z,6.37
2018-02-25T17:20:45.548Z,7.33
2018-02-25T17:23:13.241Z,7.80
2018-02-25T17:25:40.907Z,7.87
2018-02-25T17:28:08.567Z,7.00
2018-02-25T17:30:36.203Z,6.80
2018-02-25T17:33:04.035Z,6.83
2018-02-25T17:35:33.401Z,7.00
2018-02-25T17:38:01.278Z,7.97
2018-02-25T17:40:29.505Z,7.90
2018-02-25T17:42:57.434Z,6.70
2018-02-25T17:45:25.901Z,6.77
2018-02-25T17:47:53.491Z,7.63
2018-02-25T17:50:21.170Z,8.23
2018-02-25T17:52:49.239Z,6.90
2018-02-25T17:55:24.376Z,8.63
2018-02-25T17:57:45.289Z,7.70
2018-02-25T18:00:12.905Z,8.10
2018-02-25T18:02:40.485Z,7.73
2018-02-25T18:05:08.307Z,7.07
2018-02-25T18:07:35.961Z,8.63
2018-02-25T18:10:03.541Z,8.27
2018-02-25T18:12:31.163Z,6.47
2018-02-25T18:14:59.098Z,7.20
2018-02-25T18:17:27.919Z,7.47
2018-02-25T18:19:55.718Z,7.00
2018-02-25T18:22:23.325Z,7.83
2018-02-25T18:24:54.544Z,9.60
2018-02-25T18:27:22.161Z,7.10
2018-02-25T18:29:49.741Z,8.20
2018-02-25T18:32:17.370Z,7.83
2018-02-25T18:34:45.020Z,7.07
2018-02-25T18:37:13.672Z,8.97
2018-02-25T18:39:41.264Z,10.87
2018-02-25T18:42:10.205Z,14.93
2018-02-25T18:44:37.795Z,17.50
2018-02-25T18:47:05.603Z,8.80
2018-02-25T18:49:33.200Z,10.47
2018-02-25T18:52:01.267Z,13.70
2018-02-25T18:54:29.243Z,18.63
2018-02-25T18:56:56.823Z,16.10
2018-02-25T18:59:24.643Z,15.33
2018-02-25T19:01:58.444Z,16.70
2018-02-25T19:04:26.325Z,14.63
2018-02-25T19:06:53.921Z,10.70
2018-02-25T19:09:29.836Z,9.27
2018-02-25T19:12:04.211Z,9.30
2018-02-25T19:14:44.375Z,9.07
2018-02-25T19:17:12.264Z,7.70
2018-02-25T19:19:39.958Z,7.77
2018-02-25T19:22:07.576Z,9.30
2018-02-25T19:24:38.872Z,8.40
2018-02-25T19:27:06.694Z,10.07
2018-02-25T19:29:34.955Z,12.83
2018-02-25T19:32:02.583Z,9.80
2018-02-25T19:34:31.904Z,11.93
2018-02-25T19:37:05.063Z,9.20
2018-02-25T19:39:39.027Z,9.97
2018-02-25T19:42:15.072Z,8.87
2018-02-25T19:44:42.918Z,9.10
2018-02-25T19:47:10.643Z,8.57
2018-02-25T19:49:38.397Z,8.93
2018-02-25T19:52:06.026Z,10.60
2018-02-25T19:54:33.622Z,9.90
2018-02-25T19:57:01.230Z,8.77
2018-02-25T19:59:28.865Z,8.03
2018-02-25T20:01:56.476Z,9.30
2018-02-25T20:04:25.602Z,9.43
2018-02-25T20:06:53.220Z,7.43
2018-02-25T20:09:20.934Z,8.10
2018-02-25T20:11:48.666Z,8.90
2018-02-25T20:14:16.369Z,8.50
2018-02-25T20:16:43.951Z,8.37
2018-02-25T20:19:12.410Z,8.57
2018-02-25T20:21:39.989Z,8.30
2018-02-25T20:24:07.586Z,7.80
2018-02-25T20:26:35.211Z,7.93
2018-02-25T20:29:02.875Z,7.77
2018-02-25T20:31:32.081Z,9.77
2018-02-25T20:33:59.677Z,8.67
2018-02-25T20:36:27.272Z,8.50
2018-02-25T20:38:54.849Z,9.07
2018-02-25T20:41:23.598Z,7.87
2018-02-25T20:43:51.264Z,8.10
2018-02-25T20:46:18.857Z,8.77
2018-02-25T20:48:46.558Z,10.70
2018-02-25T20:51:14.879Z,10.43
2018-02-25T20:53:42.454Z,9.07
2018-02-25T20:56:10.052Z,8.77
2018-02-25T20:58:37.628Z,8.50
2018-02-25T21:01:05.228Z,12.77
2018-02-25T21:03:32.839Z,12.30
2018-02-25T21:06:00.438Z,10.77
2018-02-25T21:08:28.034Z,11.80
2018-02-25T21:10:55.715Z,11.63
2018-02-25T21:13:23.708Z,9.63
2018-02-25T21:15:51.417Z,9.93
2018-02-25T21:18:19.594Z,24.83
2018-02-25T21:20:47.251Z,20.20
2018-02-25T21:23:14.883Z,21.33
2018-02-25T21:25:43.084Z,20.63
2018-02-25T21:28:10.753Z,12.57
2018-02-25T21:30:38.379Z,14.07
2018-02-25T21:33:06.501Z,10.97
2018-02-25T21:35:34.094Z,10.40
2018-02-25T21:38:01.731Z,8.47
2018-02-25T21:40:29.402Z,9.77
2018-02-25T21:42:57.000Z,10.13
2018-02-25T21:45:25.917Z,10.50
2018-02-25T21:47:53.770Z,10.27
2018-02-25T21:50:21.653Z,10.90
2018-02-25T21:52:49.231Z,17.20
2018-02-25T21:55:17.441Z,28.90
2018-02-25T21:57:50.545Z,15.50
2018-02-25T22:00:18.194Z,11.10
2018-02-25T22:02:51.510Z,10.50
2018-02-25T22:05:19.443Z,8.33
2018-02-25T22:07:47.134Z,9.57
2018-02-25T22:10:14.753Z,11.80
2018-02-25T22:12:42.584Z,10.17
2018-02-25T22:15:11.052Z,11.43
2018-02-25T22:17:38.840Z,13.30
2018-02-25T22:20:06.469Z,13.20
2018-02-25T22:22:34.154Z,14.73
2018-02-25T22:25:01.794Z,11.80
2018-02-25T22:27:29.497Z,8.77
2018-02-25T22:29:57.092Z,10.40
2018-02-25T22:32:24.970Z,11.77
2018-02-25T22:34:52.573Z,13.03
2018-02-25T22:37:20.215Z,12.03
2018-02-25T22:39:47.874Z,12.63
2018-02-25T22:42:15.470Z,9.67
2018-02-25T22:44:43.119Z,10.77
2018-02-25T22:47:11.518Z,11.77
2018-02-25T22:49:40.060Z,11.70
2018-02-25T22:52:07.734Z,10.43
2018-02-25T22:54:35.686Z,10.77
2018-02-25T22:57:03.282Z,18.30
2018-02-25T22:59:30.878Z,9.20
2018-02-25T23:01:58.960Z,10.30
2018-02-25T23:04:26.581Z,10.00
2018-02-25T23:06:54.156Z,11.50
2018-02-25T23:09:21.755Z,9.90
2018-02-25T23:11:51.822Z,10.33
2018-02-25T23:14:19.556Z,13.60
2018-02-25T23:16:47.146Z,10.10
2018-02-25T23:19:15.403Z,13.63
2018-02-25T23:21:43.001Z,12.70
2018-02-25T23:24:10.581Z,10.07
2018-02-25T23:26:40.145Z,12.63
2018-02-25T23:29:08.050Z,12.83
2018-02-25T23:31:37.501Z,10.00
2018-02-25T23:34:05.163Z,9.27
2018-02-25T23:36:34.105Z,10.73
2018-02-25T23:39:01.827Z,9.40
2018-02-25T23:41:29.416Z,8.70
2018-02-25T23:43:58.262Z,10.53
2018-02-25T23:46:27.613Z,9.90
2018-02-25T23:48:55.255Z,8.17
2018-02-25T23:51:22.809Z,9.50
2018-02-25T23:53:50.406Z,8.27
2018-02-25T23:56:17.986Z,8.47
2018-02-25T23:58:45.561Z,8.87
